Time,TemperatureF,DewpointF,PressureIn,WindDirection,WindDirectionDegrees,WindSpeedMPH,WindSpeedGustMPH,Humidity,HourlyPrecipIn,Conditions,Clouds,dailyrainin,SoftwareType,DateUTC
2013-03-15 00:03:00,7.2,-11.0,30.25,NNW,337,5.8,-999.0,42,-99.99,,,0.00,Acu-Link.com,2013-03-15 08:03:00,
2013-03-15 00:18:00,7.0,-10.7,30.25,NNE,22,7.8,-999.0,43,-99.99,,,0.00,Acu-Link.com,2013-03-15 08:18:00,
2013-03-15 00:33:00,6.6,-10.6,30.25,NNE,22,4.2,-999.0,44,-99.99,,,0.00,Acu-Link.com,2013-03-15 08:33:00,
2013-03-15 00:48:00,7.0,-10.7,30.25,NE,45,7.8,-999.0,43,-99.99,,,0.00,Acu-Link.com,2013-03-15 08:48:00,
2013-03-15 01:04:00,7.2,-11.0,30.24,ESE,112,4.7,-999.0,42,-99.99,,,0.00,Acu-Link.com,2013-03-15 09:04:00,
2013-03-15 01:19:00,7.2,-11.0,30.24,NW,315,5.8,-999.0,42,-99.99,,,0.00,Acu-Link.com,2013-03-15 09:19:00,
2013-03-15 01:34:00,7.0,-10.7,30.24,NNE,22,7.3,-999.0,43,-99.99,,,0.00,Acu-Link.com,2013-03-15 09:34:00,
2013-03-15 01:49:00,7.0,-10.7,30.23,NNW,337,6.8,-999.0,43,-99.99,,,0.00,Acu-Link.com,2013-03-15 09:49:00,
2013-03-15 02:04:00,7.0,-11.2,30.23,NNE,22,4.7,-999.0,42,-99.99,,,0.00,Acu-Link.com,2013-03-15 10:04:00,
2013-03-15 02:19:00,7.0,-11.2,30.22,NNE,22,8.3,-999.0,42,-99.99,,,0.00,Acu-Link.com,2013-03-15 10:19:00,
2013-03-15 02:35:00,6.8,-10.9,30.23,NE,45,4.7,-999.0,43,-99.99,,,0.00,Acu-Link.com,2013-03-15 10:35:00,
2013-03-15 02:50:00,6.8,-11.4,30.22,NNE,22,6.3,-999.0,42,-99.99,,,0.00,Acu-Link.com,2013-03-15 10:50:00,
2013-03-15 03:05:00,6.8,-11.4,30.22,NNE,22,6.8,-999.0,42,-99.99,,,0.00,Acu-Link.com,2013-03-15 11:05:00,
2013-03-15 03:20:00,6.8,-11.4,30.21,NE,45,4.2,-999.0,42,-99.99,,,0.00,Acu-Link.com,2013-03-15 11:20:00,
2013-03-15 03:35:00,6.8,-11.4,30.21,NNW,337,7.8,-999.0,42,-99.99,,,0.00,Acu-Link.com,2013-03-15 11:35:00,
2013-03-15 03:50:00,6.8,-11.4,30.21,NE,45,7.3,-999.0,42,-99.99,,,0.00,Acu-Link.com,2013-03-15 11:50:00,
2013-03-15 04:05:00,6.6,-11.6,30.20,NE,45,6.3,-999.0,42,-99.99,,,0.00,Acu-Link.com,2013-03-15 12:05:00,
2013-03-15 04:20:00,6.6,-12.0,30.19,NNE,22,4.7,-999.0,41,-99.99,,,0.00,Acu-Link.com,2013-03-15 12:20:00,
2013-03-15 04:35:00,6.6,-12.0,30.20,NE,45,4.7,-999.0,41,-99.99,,,0.00,Acu-Link.com,2013-03-15 12:35:00,
2013-03-15 04:50:00,6.8,-11.9,30.19,East,90,4.7,-999.0,41,-99.99,,,0.00,Acu-Link.com,2013-03-15 12:50:00,
2013-03-15 05:06:00,6.6,-12.0,30.18,East,90,4.2,-999.0,41,-99.99,,,0.00,Acu-Link.com,2013-03-15 13:06:00,
2013-03-15 05:21:00,6.3,-12.3,30.19,ENE,67,2.7,-999.0,41,-99.99,,,0.00,Acu-Link.com,2013-03-15 13:21:00,
2013-03-15 06:06:00,2.5,-13.5,30.17,East,90,1.7,-999.0,46,-99.99,,,0.00,Acu-Link.com,2013-03-15 14:06:00,
2013-03-15 06:21:00,-0.8,-13.8,30.18,NE,45,0.0,-999.0,53,-99.99,,,0.00,Acu-Link.com,2013-03-15 14:21:00,
2013-03-15 06:36:00,-1.7,-14.2,30.17,NE,45,0.0,-999.0,54,-99.99,,,0.00,Acu-Link.com,2013-03-15 14:36:00,
2013-03-15 06:51:00,2.3,-13.3,30.17,East,90,3.2,-999.0,47,-99.99,,,0.00,Acu-Link.com,2013-03-15 14:51:00,
2013-03-15 07:22:00,1.0,-13.6,30.16,NE,45,2.7,-999.0,49,-99.99,,,0.00,Acu-Link.com,2013-03-15 15:22:00,
2013-03-15 07:37:00,-0.4,-14.2,30.15,East,90,2.2,-999.0,51,-99.99,,,0.00,Acu-Link.com,2013-03-15 15:37:00,
2013-03-15 07:52:00,-3.6,-15.7,30.15,East,90,0.0,-999.0,55,-99.99,,,0.00,Acu-Link.com,2013-03-15 15:52:00,
2013-03-15 08:07:00,-5.3,-15.9,30.15,East,90,0.0,-999.0,59,-99.99,,,0.00,Acu-Link.com,2013-03-15 16:07:00,
2013-03-15 08:22:00,-6.2,-16.4,30.14,East,90,1.7,-999.0,60,-99.99,,,0.00,Acu-Link.com,2013-03-15 16:22:00,
2013-03-15 08:37:00,-6.0,-15.9,30.14,East,90,0.0,-999.0,61,-99.99,,,0.00,Acu-Link.com,2013-03-15 16:37:00,
2013-03-15 08:53:00,-6.2,-15.5,30.15,East,90,0.0,-999.0,63,-99.99,,,0.00,Acu-Link.com,2013-03-15 16:53:00,
2013-03-15 09:08:00,-5.4,-14.7,30.15,East,90,0.0,-999.0,63,-99.99,,,0.00,Acu-Link.com,2013-03-15 17:08:00,
2013-03-15 09:23:00,-3.5,-14.2,30.14,East,90,0.0,-999.0,59,-99.99,,,0.00,Acu-Link.com,2013-03-15 17:23:00,
2013-03-15 09:38:00,-1.3,-13.1,30.14,East,90,0.0,-999.0,56,-99.99,,,0.00,Acu-Link.com,2013-03-15 17:38:00,
2013-03-15 09:53:00,1.9,-12.4,30.13,East,90,0.0,-999.0,50,-99.99,,,0.00,Acu-Link.com,2013-03-15 17:53:00,
2013-03-15 10:08:00,5.0,-12.5,30.13,East,90,0.0,-999.0,43,-99.99,,,0.00,Acu-Link.com,2013-03-15 18:08:00,
2013-03-15 10:23:00,5.9,-11.7,30.12,East,90,2.2,-999.0,43,-99.99,,,0.00,Acu-Link.com,2013-03-15 18:23:00,
2013-03-15 10:38:00,7.3,-11.4,30.12,East,90,0.0,-999.0,41,-99.99,,,0.00,Acu-Link.com,2013-03-15 18:38:00,
2013-03-15 10:53:00,8.6,-10.7,30.11,East,90,0.0,-999.0,40,-99.99,,,0.00,Acu-Link.com,2013-03-15 18:53:00,
2013-03-15 11:09:00,10.0,-10.5,30.12,East,90,0.0,-999.0,38,-99.99,,,0.00,Acu-Link.com,2013-03-15 19:09:00,
2013-03-15 11:24:00,12.0,-10.3,30.12,NE,45,0.0,-999.0,35,-99.99,,,0.00,Acu-Link.com,2013-03-15 19:24:00,
2013-03-15 11:39:00,14.0,-9.1,30.10,East,90,1.7,-999.0,34,-99.99,,,0.00,Acu-Link.com,2013-03-15 19:39:00,
2013-03-15 11:54:00,14.7,-8.5,30.09,East,90,1.1,-999.0,34,-99.99,,,0.00,Acu-Link.com,2013-03-15 19:54:00,
2013-03-15 12:09:00,17.6,-9.2,30.09,ESE,112,3.7,-999.0,29,-99.99,,,0.00,Acu-Link.com,2013-03-15 20:09:00,
2013-03-15 12:24:00,18.0,-8.8,30.09,NE,45,3.2,-999.0,29,-99.99,,,0.00,Acu-Link.com,2013-03-15 20:24:00,
2013-03-15 12:39:00,19.2,-10.8,30.08,ENE,67,3.7,-999.0,25,-99.99,,,0.00,Acu-Link.com,2013-03-15 20:39:00,
2013-03-15 12:54:00,19.8,-9.5,30.08,NNE,22,8.3,-999.0,26,-99.99,,,0.00,Acu-Link.com,2013-03-15 20:54:00,
2013-03-15 13:09:00,21.2,-9.1,30.07,ENE,67,3.7,-999.0,25,-99.99,,,0.00,Acu-Link.com,2013-03-15 21:09:00,
2013-03-15 13:25:00,21.2,-9.1,30.06,ESE,112,5.8,-999.0,25,-99.99,,,0.00,Acu-Link.com,2013-03-15 21:25:00,
2013-03-15 13:40:00,21.6,-7.9,30.05,East,90,3.7,-999.0,26,-99.99,,,0.00,Acu-Link.com,2013-03-15 21:40:00,
2013-03-15 13:55:00,21.7,-7.8,30.05,ENE,67,3.2,-999.0,26,-99.99,,,0.00,Acu-Link.com,2013-03-15 21:55:00,
2013-03-15 14:10:00,21.9,-8.5,30.05,East,90,3.7,-999.0,25,-99.99,,,0.00,Acu-Link.com,2013-03-15 22:10:00,
2013-03-15 14:25:00,22.3,-7.3,30.04,ESE,112,4.2,-999.0,26,-99.99,,,0.00,Acu-Link.com,2013-03-15 22:25:00,
2013-03-15 14:40:00,23.2,-6.5,30.04,ESE,112,6.3,-999.0,26,-99.99,,,0.00,Acu-Link.com,2013-03-15 22:40:00,
2013-03-15 14:55:00,22.8,-6.9,30.04,ENE,67,5.3,-999.0,26,-99.99,,,0.00,Acu-Link.com,2013-03-15 22:55:00,
2013-03-15 15:10:00,22.6,-6.3,30.03,East,90,5.3,-999.0,27,-99.99,,,0.00,Acu-Link.com,2013-03-15 23:10:00,
2013-03-15 15:26:00,22.5,-6.4,30.02,East,90,4.7,-999.0,27,-99.99,,,0.00,Acu-Link.com,2013-03-15 23:26:00,
2013-03-15 15:56:00,23.4,-8.0,30.01,East,90,8.3,-999.0,24,-99.99,,,0.00,Acu-Link.com,2013-03-15 23:56:00,
2013-03-15 16:26:00,22.1,-5.2,30.00,East,90,2.2,-999.0,29,-99.99,,,0.00,Acu-Link.com,2013-03-16 00:26:00,
2013-03-15 16:41:00,22.1,-6.0,30.01,East,90,4.2,-999.0,28,-99.99,,,0.00,Acu-Link.com,2013-03-16 00:41:00,
2013-03-15 17:12:00,21.6,-5.7,30.00,ENE,67,5.3,-999.0,29,-99.99,,,0.00,Acu-Link.com,2013-03-16 01:12:00,
2013-03-15 17:27:00,21.6,-5.7,30.00,NNE,22,4.2,-999.0,29,-99.99,,,0.00,Acu-Link.com,2013-03-16 01:27:00,
2013-03-15 17:42:00,21.4,-4.5,30.01,North,0,5.3,-999.0,31,-99.99,,,0.00,Acu-Link.com,2013-03-16 01:42:00,
2013-03-15 17:57:00,20.8,-5.7,30.01,NNE,22,4.7,-999.0,30,-99.99,,,0.00,Acu-Link.com,2013-03-16 01:57:00,
2013-03-15 18:12:00,20.1,-5.6,30.01,NNE,22,12.5,-999.0,31,-99.99,,,0.00,Acu-Link.com,2013-03-16 02:12:00,
2013-03-15 18:27:00,19.0,-5.9,30.01,NE,45,6.8,-999.0,32,-99.99,,,0.00,Acu-Link.com,2013-03-16 02:27:00,
2013-03-15 18:42:00,18.5,-6.4,30.00,NNE,22,8.9,-999.0,32,-99.99,,,0.00,Acu-Link.com,2013-03-16 02:42:00,
2013-03-15 18:57:00,17.6,-5.3,30.01,North,0,6.3,-999.0,35,-99.99,,,0.00,Acu-Link.com,2013-03-16 02:57:00,
2013-03-15 19:12:00,16.2,-6.6,30.02,NNE,22,5.3,-999.0,35,-99.99,,,0.00,Acu-Link.com,2013-03-16 03:12:00,
2013-03-15 19:28:00,15.3,-6.3,30.01,NE,45,5.3,-999.0,37,-99.99,,,0.00,Acu-Link.com,2013-03-16 03:28:00,
2013-03-15 19:43:00,14.5,-7.0,30.02,ESE,112,4.2,-999.0,37,-99.99,,,0.00,Acu-Link.com,2013-03-16 03:43:00,
2013-03-15 19:58:00,14.0,-7.4,30.01,NNE,22,4.7,-999.0,37,-99.99,,,0.00,Acu-Link.com,2013-03-16 03:58:00,
2013-03-15 20:13:00,12.7,-7.0,30.02,NE,45,1.7,-999.0,40,-99.99,,,0.00,Acu-Link.com,2013-03-16 04:13:00,
2013-03-15 20:28:00,10.2,-7.8,30.03,East,90,2.2,-999.0,43,-99.99,,,0.00,Acu-Link.com,2013-03-16 04:28:00,
2013-03-15 20:43:00,8.6,-7.9,30.04,East,90,1.7,-999.0,46,-99.99,,,0.00,Acu-Link.com,2013-03-16 04:43:00,
2013-03-15 20:58:00,6.4,-8.6,30.03,East,90,0.0,-999.0,49,-99.99,,,0.00,Acu-Link.com,2013-03-16 04:58:00,
2013-03-15 21:13:00,4.5,-8.4,30.03,East,90,0.0,-999.0,54,-99.99,,,0.00,Acu-Link.com,2013-03-16 05:13:00,
2013-03-15 21:28:00,3.0,-9.1,30.03,East,90,0.0,-999.0,56,-99.99,,,0.00,Acu-Link.com,2013-03-16 05:28:00,
2013-03-15 21:44:00,1.8,-8.8,30.04,East,90,0.0,-999.0,60,-99.99,,,0.00,Acu-Link.com,2013-03-16 05:44:00,
2013-03-15 21:59:00,1.4,-9.6,30.03,East,90,0.0,-999.0,59,-99.99,,,0.00,Acu-Link.com,2013-03-16 05:59:00,
2013-03-15 22:14:00,3.6,-9.3,30.04,NE,45,1.7,-999.0,54,-99.99,,,0.00,Acu-Link.com,2013-03-16 06:14:00,
2013-03-15 22:29:00,6.6,-8.9,30.05,NE,45,3.2,-999.0,48,-99.99,,,0.00,Acu-Link.com,2013-03-16 06:29:00,
2013-03-15 22:44:00,7.5,-8.9,30.05,NE,45,4.2,-999.0,46,-99.99,,,0.00,Acu-Link.com,2013-03-16 06:44:00,
2013-03-15 22:59:00,7.5,-8.9,30.04,NE,45,2.7,-999.0,46,-99.99,,,0.00,Acu-Link.com,2013-03-16 06:59:00,
2013-03-15 23:14:00,8.1,-9.3,30.05,NNE,22,4.7,-999.0,44,-99.99,,,0.00,Acu-Link.com,2013-03-16 07:14:00,
2013-03-15 23:29:00,8.2,-9.6,30.06,NE,45,3.7,-999.0,43,-99.99,,,0.00,Acu-Link.com,2013-03-16 07:29:00,
2013-03-15 23:44:00,8.4,-9.4,30.06,NNE,22,5.3,-999.0,43,-99.99,,,0.00,Acu-Link.com,2013-03-16 07:44:00,